sensor_id;sensor_type;location;lat;lon;timestamp;P1;durP1;ratioP1;P2;durP2;ratioP2
33716;SDS011;20046;50.746;7.072;2022-11-14T00:00:34;30.42;;;16.05;;
33716;SDS011;20046;50.746;7.072;2022-11-14T00:03:00;30.52;;;16.08;;
33716;SDS011;20046;50.746;7.072;2022-11-14T00:05:27;28.88;;;15.07;;
33716;SDS011;20046;50.746;7.072;2022-11-14T00:07:53;25.10;;;15.02;;
33716;SDS011;20046;50.746;7.072;2022-11-14T00:10:19;28.25;;;15.75;;
33716;SDS011;20046;50.746;7.072;2022-11-14T00:12:45;30.35;;;15.55;;
33716;SDS011;20046;50.746;7.072;2022-11-14T00:15:11;23.98;;;14.82;;
33716;SDS011;20046;50.746;7.072;2022-11-14T00:17:37;28.23;;;15.25;;
33716;SDS011;20046;50.746;7.072;2022-11-14T00:20:04;25.35;;;15.30;;
33716;SDS011;20046;50.746;7.072;2022-11-14T00:22:30;26.55;;;15.15;;
33716;SDS011;20046;50.746;7.072;2022-11-14T00:24:56;27.67;;;14.10;;
33716;SDS011;20046;50.746;7.072;2022-11-14T00:27:22;25.42;;;14.40;;
33716;SDS011;20046;50.746;7.072;2022-11-14T00:29:47;22.85;;;13.48;;
33716;SDS011;20046;50.746;7.072;2022-11-14T00:32:13;23.25;;;13.65;;
33716;SDS011;20046;50.746;7.072;2022-11-14T00:34:39;27.48;;;14.23;;
33716;SDS011;20046;50.746;7.072;2022-11-14T00:37:04;27.08;;;13.68;;
33716;SDS011;20046;50.746;7.072;2022-11-14T00:39:30;21.75;;;13.48;;
33716;SDS011;20046;50.746;7.072;2022-11-14T00:41:55;23.65;;;13.90;;
33716;SDS011;20046;50.746;7.072;2022-11-14T00:44:21;50.03;;;24.42;;
33716;SDS011;20046;50.746;7.072;2022-11-14T00:46:47;22.98;;;13.65;;
33716;SDS011;20046;50.746;7.072;2022-11-14T00:49:12;26.20;;;14.80;;
33716;SDS011;20046;50.746;7.072;2022-11-14T00:51:38;24.33;;;14.07;;
33716;SDS011;20046;50.746;7.072;2022-11-14T00:54:03;25.58;;;14.63;;
33716;SDS011;20046;50.746;7.072;2022-11-14T00:56:29;29.48;;;14.55;;
33716;SDS011;20046;50.746;7.072;2022-11-14T00:58:55;25.83;;;14.80;;
33716;SDS011;20046;50.746;7.072;2022-11-14T01:01:20;25.10;;;14.02;;
33716;SDS011;20046;50.746;7.072;2022-11-14T01:03:47;27.55;;;12.98;;
33716;SDS011;20046;50.746;7.072;2022-11-14T01:06:13;24.35;;;14.45;;
33716;SDS011;20046;50.746;7.072;2022-11-14T01:08:40;28.58;;;14.25;;
33716;SDS011;20046;50.746;7.072;2022-11-14T01:11:10;24.85;;;14.15;;
33716;SDS011;20046;50.746;7.072;2022-11-14T01:13:41;26.33;;;14.02;;
33716;SDS011;20046;50.746;7.072;2022-11-14T01:16:08;27.77;;;14.30;;
33716;SDS011;20046;50.746;7.072;2022-11-14T01:18:34;27.08;;;14.48;;
33716;SDS011;20046;50.746;7.072;2022-11-14T01:21:03;23.98;;;14.00;;
33716;SDS011;20046;50.746;7.072;2022-11-14T01:23:30;27.08;;;14.15;;
33716;SDS011;20046;50.746;7.072;2022-11-14T01:26:14;26.73;;;13.95;;
33716;SDS011;20046;50.746;7.072;2022-11-14T01:28:40;23.33;;;13.73;;
33716;SDS011;20046;50.746;7.072;2022-11-14T01:31:16;27.92;;;14.70;;
33716;SDS011;20046;50.746;7.072;2022-11-14T01:33:46;24.38;;;14.40;;
33716;SDS011;20046;50.746;7.072;2022-11-14T01:36:13;25.27;;;14.23;;
33716;SDS011;20046;50.746;7.072;2022-11-14T01:38:39;26.02;;;13.90;;
33716;SDS011;20046;50.746;7.072;2022-11-14T01:41:04;27.70;;;14.15;;
33716;SDS011;20046;50.746;7.072;2022-11-14T01:43:34;20.90;;;13.15;;
33716;SDS011;20046;50.746;7.072;2022-11-14T01:46:12;24.88;;;13.55;;
33716;SDS011;20046;50.746;7.072;2022-11-14T01:48:47;30.13;;;14.63;;
33716;SDS011;20046;50.746;7.072;2022-11-14T01:53:39;26.90;;;13.95;;
33716;SDS011;20046;50.746;7.072;2022-11-14T01:56:05;23.45;;;13.75;;
33716;SDS011;20046;50.746;7.072;2022-11-14T01:58:33;26.40;;;14.27;;
33716;SDS011;20046;50.746;7.072;2022-11-14T02:01:00;25.67;;;13.88;;
33716;SDS011;20046;50.746;7.072;2022-11-14T02:03:27;26.90;;;15.70;;
33716;SDS011;20046;50.746;7.072;2022-11-14T02:05:52;25.63;;;14.45;;
33716;SDS011;20046;50.746;7.072;2022-11-14T02:08:20;29.50;;;14.35;;
33716;SDS011;20046;50.746;7.072;2022-11-14T02:10:46;26.20;;;14.02;;
33716;SDS011;20046;50.746;7.072;2022-11-14T02:13:12;26.17;;;15.15;;
33716;SDS011;20046;50.746;7.072;2022-11-14T02:15:37;23.92;;;13.50;;
33716;SDS011;20046;50.746;7.072;2022-11-14T02:18:03;28.65;;;14.55;;
33716;SDS011;20046;50.746;7.072;2022-11-14T02:20:32;24.10;;;14.10;;
33716;SDS011;20046;50.746;7.072;2022-11-14T02:23:00;28.65;;;14.13;;
33716;SDS011;20046;50.746;7.072;2022-11-14T02:25:26;23.90;;;14.07;;
33716;SDS011;20046;50.746;7.072;2022-11-14T02:27:51;28.67;;;14.77;;
33716;SDS011;20046;50.746;7.072;2022-11-14T02:30:18;24.75;;;14.32;;
33716;SDS011;20046;50.746;7.072;2022-11-14T02:32:46;23.65;;;13.50;;
33716;SDS011;20046;50.746;7.072;2022-11-14T02:35:12;25.13;;;14.48;;
33716;SDS011;20046;50.746;7.072;2022-11-14T02:37:37;31.30;;;16.15;;
33716;SDS011;20046;50.746;7.072;2022-11-14T02:40:03;27.58;;;14.90;;
33716;SDS011;20046;50.746;7.072;2022-11-14T02:42:30;24.83;;;14.57;;
33716;SDS011;20046;50.746;7.072;2022-11-14T02:44:55;24.95;;;14.82;;
33716;SDS011;20046;50.746;7.072;2022-11-14T02:47:21;28.08;;;14.82;;
33716;SDS011;20046;50.746;7.072;2022-11-14T02:49:49;27.48;;;15.90;;
33716;SDS011;20046;50.746;7.072;2022-11-14T02:52:14;26.58;;;15.23;;
33716;SDS011;20046;50.746;7.072;2022-11-14T02:54:40;25.38;;;14.48;;
33716;SDS011;20046;50.746;7.072;2022-11-14T02:57:06;27.75;;;14.32;;
33716;SDS011;20046;50.746;7.072;2022-11-14T02:59:31;30.33;;;14.98;;
33716;SDS011;20046;50.746;7.072;2022-11-14T03:01:57;26.67;;;14.23;;
33716;SDS011;20046;50.746;7.072;2022-11-14T03:04:22;32.65;;;15.43;;
33716;SDS011;20046;50.746;7.072;2022-11-14T03:06:48;30.27;;;14.88;;
33716;SDS011;20046;50.746;7.072;2022-11-14T03:09:13;28.48;;;14.88;;
33716;SDS011;20046;50.746;7.072;2022-11-14T03:11:39;28.85;;;15.25;;
33716;SDS011;20046;50.746;7.072;2022-11-14T03:14:04;31.83;;;15.00;;
33716;SDS011;20046;50.746;7.072;2022-11-14T03:16:30;26.35;;;14.25;;
33716;SDS011;20046;50.746;7.072;2022-11-14T03:18:56;28.50;;;15.20;;
33716;SDS011;20046;50.746;7.072;2022-11-14T03:21:21;36.65;;;16.50;;
33716;SDS011;20046;50.746;7.072;2022-11-14T03:23:47;34.53;;;15.48;;
33716;SDS011;20046;50.746;7.072;2022-11-14T03:26:13;30.85;;;15.68;;
33716;SDS011;20046;50.746;7.072;2022-11-14T03:28:40;32.03;;;15.10;;
33716;SDS011;20046;50.746;7.072;2022-11-14T03:31:07;26.70;;;13.98;;
33716;SDS011;20046;50.746;7.072;2022-11-14T03:33:35;30.85;;;16.13;;
33716;SDS011;20046;50.746;7.072;2022-11-14T03:36:01;33.50;;;18.70;;
33716;SDS011;20046;50.746;7.072;2022-11-14T03:38:28;31.08;;;16.80;;
33716;SDS011;20046;50.746;7.072;2022-11-14T03:40:53;33.20;;;17.52;;
33716;SDS011;20046;50.746;7.072;2022-11-14T03:43:21;32.67;;;18.38;;
33716;SDS011;20046;50.746;7.072;2022-11-14T03:45:47;31.55;;;16.88;;
33716;SDS011;20046;50.746;7.072;2022-11-14T03:48:12;27.73;;;16.17;;
33716;SDS011;20046;50.746;7.072;2022-11-14T03:50:39;30.25;;;16.25;;
33716;SDS011;20046;50.746;7.072;2022-11-14T03:53:04;25.80;;;15.73;;
33716;SDS011;20046;50.746;7.072;2022-11-14T03:55:30;28.73;;;15.90;;
33716;SDS011;20046;50.746;7.072;2022-11-14T03:57:56;30.33;;;16.70;;
33716;SDS011;20046;50.746;7.072;2022-11-14T04:00:22;32.72;;;16.77;;
33716;SDS011;20046;50.746;7.072;2022-11-14T04:02:47;35.20;;;17.42;;
33716;SDS011;20046;50.746;7.072;2022-11-14T04:05:13;38.53;;;18.70;;
33716;SDS011;20046;50.746;7.072;2022-11-14T04:07:38;36.67;;;17.20;;
33716;SDS011;20046;50.746;7.072;2022-11-14T04:10:04;40.65;;;20.60;;
33716;SDS011;20046;50.746;7.072;2022-11-14T04:12:30;34.92;;;18.75;;
33716;SDS011;20046;50.746;7.072;2022-11-14T04:14:56;37.30;;;18.73;;
33716;SDS011;20046;50.746;7.072;2022-11-14T04:17:22;34.67;;;20.30;;
33716;SDS011;20046;50.746;7.072;2022-11-14T04:19:47;47.97;;;23.05;;
33716;SDS011;20046;50.746;7.072;2022-11-14T04:22:14;41.30;;;19.98;;
33716;SDS011;20046;50.746;7.072;2022-11-14T04:24:40;43.50;;;21.50;;
33716;SDS011;20046;50.746;7.072;2022-11-14T04:27:05;44.88;;;22.63;;
33716;SDS011;20046;50.746;7.072;2022-11-14T04:29:31;40.92;;;20.40;;
33716;SDS011;20046;50.746;7.072;2022-11-14T04:31:56;43.25;;;21.77;;
33716;SDS011;20046;50.746;7.072;2022-11-14T04:34:22;42.90;;;22.40;;
33716;SDS011;20046;50.746;7.072;2022-11-14T04:36:47;45.00;;;21.83;;
33716;SDS011;20046;50.746;7.072;2022-11-14T04:39:15;47.47;;;24.20;;
33716;SDS011;20046;50.746;7.072;2022-11-14T04:41:41;45.38;;;25.15;;
33716;SDS011;20046;50.746;7.072;2022-11-14T04:44:07;46.25;;;25.00;;
33716;SDS011;20046;50.746;7.072;2022-11-14T04:46:33;49.40;;;25.10;;
33716;SDS011;20046;50.746;7.072;2022-11-14T04:48:58;50.28;;;25.75;;
33716;SDS011;20046;50.746;7.072;2022-11-14T04:51:24;56.15;;;26.15;;
33716;SDS011;20046;50.746;7.072;2022-11-14T04:53:49;51.45;;;26.15;;
33716;SDS011;20046;50.746;7.072;2022-11-14T04:56:15;52.33;;;25.52;;
33716;SDS011;20046;50.746;7.072;2022-11-14T04:58:41;49.00;;;24.70;;
33716;SDS011;20046;50.746;7.072;2022-11-14T05:01:07;53.92;;;25.80;;
33716;SDS011;20046;50.746;7.072;2022-11-14T05:03:33;53.75;;;26.88;;
33716;SDS011;20046;50.746;7.072;2022-11-14T05:05:59;54.70;;;26.17;;
33716;SDS011;20046;50.746;7.072;2022-11-14T05:08:25;49.08;;;23.63;;
33716;SDS011;20046;50.746;7.072;2022-11-14T05:10:51;46.72;;;24.25;;
33716;SDS011;20046;50.746;7.072;2022-11-14T05:13:16;51.45;;;25.67;;
33716;SDS011;20046;50.746;7.072;2022-11-14T05:15:42;52.30;;;26.35;;
33716;SDS011;20046;50.746;7.072;2022-11-14T05:18:08;57.70;;;26.20;;
33716;SDS011;20046;50.746;7.072;2022-11-14T05:20:33;58.67;;;27.02;;
33716;SDS011;20046;50.746;7.072;2022-11-14T05:22:59;54.55;;;24.70;;
33716;SDS011;20046;50.746;7.072;2022-11-14T05:25:24;56.72;;;27.60;;
33716;SDS011;20046;50.746;7.072;2022-11-14T05:27:50;56.22;;;26.80;;
33716;SDS011;20046;50.746;7.072;2022-11-14T05:30:15;54.05;;;25.80;;
33716;SDS011;20046;50.746;7.072;2022-11-14T05:32:41;59.67;;;24.35;;
33716;SDS011;20046;50.746;7.072;2022-11-14T05:35:07;52.35;;;24.38;;
33716;SDS011;20046;50.746;7.072;2022-11-14T05:37:33;49.05;;;24.17;;
33716;SDS011;20046;50.746;7.072;2022-11-14T05:39:59;50.45;;;25.17;;
33716;SDS011;20046;50.746;7.072;2022-11-14T05:42:26;53.15;;;24.10;;
33716;SDS011;20046;50.746;7.072;2022-11-14T05:44:52;52.50;;;25.25;;
33716;SDS011;20046;50.746;7.072;2022-11-14T05:47:17;52.22;;;25.90;;
33716;SDS011;20046;50.746;7.072;2022-11-14T05:49:43;52.42;;;23.48;;
33716;SDS011;20046;50.746;7.072;2022-11-14T05:52:09;55.83;;;24.67;;
33716;SDS011;20046;50.746;7.072;2022-11-14T05:54:35;58.42;;;26.08;;
33716;SDS011;20046;50.746;7.072;2022-11-14T05:57:00;52.03;;;25.13;;
33716;SDS011;20046;50.746;7.072;2022-11-14T05:59:26;53.03;;;24.67;;
33716;SDS011;20046;50.746;7.072;2022-11-14T06:01:52;54.80;;;25.80;;
33716;SDS011;20046;50.746;7.072;2022-11-14T06:04:18;54.03;;;26.52;;
33716;SDS011;20046;50.746;7.072;2022-11-14T06:06:43;56.10;;;26.42;;
33716;SDS011;20046;50.746;7.072;2022-11-14T06:09:09;51.83;;;24.80;;
33716;SDS011;20046;50.746;7.072;2022-11-14T06:11:34;53.58;;;25.85;;
33716;SDS011;20046;50.746;7.072;2022-11-14T06:14:00;55.25;;;26.33;;
33716;SDS011;20046;50.746;7.072;2022-11-14T06:16:26;59.92;;;26.90;;
33716;SDS011;20046;50.746;7.072;2022-11-14T06:18:52;59.58;;;28.85;;
33716;SDS011;20046;50.746;7.072;2022-11-14T06:21:19;65.68;;;30.45;;
33716;SDS011;20046;50.746;7.072;2022-11-14T06:23:46;59.03;;;29.42;;
33716;SDS011;20046;50.746;7.072;2022-11-14T06:26:33;60.28;;;28.83;;
33716;SDS011;20046;50.746;7.072;2022-11-14T06:28:58;72.35;;;31.05;;
33716;SDS011;20046;50.746;7.072;2022-11-14T06:31:24;60.58;;;29.58;;
33716;SDS011;20046;50.746;7.072;2022-11-14T06:33:50;58.72;;;30.00;;
33716;SDS011;20046;50.746;7.072;2022-11-14T06:36:16;62.15;;;31.00;;
33716;SDS011;20046;50.746;7.072;2022-11-14T06:38:43;61.30;;;30.33;;
33716;SDS011;20046;50.746;7.072;2022-11-14T06:43:39;61.90;;;29.75;;
33716;SDS011;20046;50.746;7.072;2022-11-14T06:46:07;61.42;;;29.02;;
33716;SDS011;20046;50.746;7.072;2022-11-14T06:48:35;61.38;;;29.58;;
33716;SDS011;20046;50.746;7.072;2022-11-14T06:51:01;61.08;;;28.73;;
33716;SDS011;20046;50.746;7.072;2022-11-14T06:53:29;56.25;;;28.77;;
33716;SDS011;20046;50.746;7.072;2022-11-14T06:58:26;53.25;;;27.50;;
33716;SDS011;20046;50.746;7.072;2022-11-14T07:01:19;54.63;;;28.95;;
33716;SDS011;20046;50.746;7.072;2022-11-14T07:03:46;58.53;;;27.40;;
33716;SDS011;20046;50.746;7.072;2022-11-14T07:06:14;55.22;;;27.58;;
33716;SDS011;20046;50.746;7.072;2022-11-14T07:08:41;52.88;;;27.27;;
33716;SDS011;20046;50.746;7.072;2022-11-14T07:11:08;55.08;;;27.88;;
33716;SDS011;20046;50.746;7.072;2022-11-14T07:13:47;56.42;;;28.05;;
33716;SDS011;20046;50.746;7.072;2022-11-14T07:16:22;53.22;;;27.52;;
33716;SDS011;20046;50.746;7.072;2022-11-14T07:18:49;49.03;;;25.92;;
33716;SDS011;20046;50.746;7.072;2022-11-14T07:21:14;48.17;;;25.63;;
33716;SDS011;20046;50.746;7.072;2022-11-14T07:23:40;53.05;;;26.77;;
33716;SDS011;20046;50.746;7.072;2022-11-14T07:26:07;55.42;;;26.77;;
33716;SDS011;20046;50.746;7.072;2022-11-14T07:28:35;53.17;;;25.92;;
33716;SDS011;20046;50.746;7.072;2022-11-14T07:31:02;54.65;;;25.65;;
33716;SDS011;20046;50.746;7.072;2022-11-14T07:33:30;51.22;;;25.45;;
33716;SDS011;20046;50.746;7.072;2022-11-14T07:35:56;51.78;;;26.40;;
33716;SDS011;20046;50.746;7.072;2022-11-14T07:38:21;51.55;;;24.73;;
33716;SDS011;20046;50.746;7.072;2022-11-14T07:43:29;55.08;;;26.75;;
33716;SDS011;20046;50.746;7.072;2022-11-14T07:46:01;62.22;;;28.23;;
33716;SDS011;20046;50.746;7.072;2022-11-14T07:48:29;57.67;;;27.95;;
33716;SDS011;20046;50.746;7.072;2022-11-14T07:50:58;59.72;;;28.08;;
33716;SDS011;20046;50.746;7.072;2022-11-14T07:53:25;53.47;;;26.08;;
33716;SDS011;20046;50.746;7.072;2022-11-14T07:55:51;55.58;;;25.30;;
33716;SDS011;20046;50.746;7.072;2022-11-14T07:58:16;54.38;;;26.60;;
33716;SDS011;20046;50.746;7.072;2022-11-14T08:00:42;58.58;;;26.80;;
33716;SDS011;20046;50.746;7.072;2022-11-14T08:03:08;56.38;;;26.25;;
33716;SDS011;20046;50.746;7.072;2022-11-14T08:05:34;53.53;;;26.25;;
33716;SDS011;20046;50.746;7.072;2022-11-14T08:08:00;52.55;;;25.52;;
33716;SDS011;20046;50.746;7.072;2022-11-14T08:10:25;55.58;;;25.48;;
33716;SDS011;20046;50.746;7.072;2022-11-14T08:12:57;46.90;;;23.17;;
33716;SDS011;20046;50.746;7.072;2022-11-14T08:15:24;48.30;;;23.20;;
33716;SDS011;20046;50.746;7.072;2022-11-14T08:17:50;50.50;;;24.40;;
33716;SDS011;20046;50.746;7.072;2022-11-14T08:20:15;50.78;;;23.95;;
33716;SDS011;20046;50.746;7.072;2022-11-14T08:22:41;54.58;;;23.02;;
33716;SDS011;20046;50.746;7.072;2022-11-14T08:25:07;42.97;;;21.80;;
33716;SDS011;20046;50.746;7.072;2022-11-14T08:27:32;45.83;;;23.27;;
33716;SDS011;20046;50.746;7.072;2022-11-14T08:29:58;50.78;;;24.10;;
33716;SDS011;20046;50.746;7.072;2022-11-14T08:32:23;46.72;;;22.38;;
33716;SDS011;20046;50.746;7.072;2022-11-14T08:34:49;52.85;;;22.60;;
33716;SDS011;20046;50.746;7.072;2022-11-14T08:37:15;46.13;;;22.00;;
33716;SDS011;20046;50.746;7.072;2022-11-14T08:39:40;48.08;;;21.35;;
33716;SDS011;20046;50.746;7.072;2022-11-14T08:42:06;46.20;;;22.13;;
33716;SDS011;20046;50.746;7.072;2022-11-14T08:44:31;54.58;;;22.67;;
33716;SDS011;20046;50.746;7.072;2022-11-14T08:46:57;49.83;;;22.20;;
33716;SDS011;20046;50.746;7.072;2022-11-14T08:49:24;46.03;;;21.95;;
33716;SDS011;20046;50.746;7.072;2022-11-14T08:51:50;46.05;;;21.20;;
33716;SDS011;20046;50.746;7.072;2022-11-14T08:54:16;51.10;;;21.92;;
33716;SDS011;20046;50.746;7.072;2022-11-14T08:56:43;49.78;;;22.75;;
33716;SDS011;20046;50.746;7.072;2022-11-14T08:59:08;45.30;;;23.05;;
33716;SDS011;20046;50.746;7.072;2022-11-14T09:01:34;51.10;;;23.70;;
33716;SDS011;20046;50.746;7.072;2022-11-14T09:03:59;50.13;;;22.42;;
33716;SDS011;20046;50.746;7.072;2022-11-14T09:06:25;51.20;;;23.30;;
33716;SDS011;20046;50.746;7.072;2022-11-14T09:08:51;47.72;;;22.15;;
33716;SDS011;20046;50.746;7.072;2022-11-14T09:11:16;52.60;;;23.48;;
33716;SDS011;20046;50.746;7.072;2022-11-14T09:13:42;46.13;;;21.15;;
33716;SDS011;20046;50.746;7.072;2022-11-14T09:16:08;49.90;;;20.23;;
33716;SDS011;20046;50.746;7.072;2022-11-14T09:18:33;50.47;;;22.77;;
33716;SDS011;20046;50.746;7.072;2022-11-14T09:21:06;45.97;;;21.27;;
33716;SDS011;20046;50.746;7.072;2022-11-14T09:26:05;50.88;;;22.10;;
33716;SDS011;20046;50.746;7.072;2022-11-14T09:28:32;44.67;;;22.13;;
33716;SDS011;20046;50.746;7.072;2022-11-14T09:30:59;51.67;;;22.63;;
33716;SDS011;20046;50.746;7.072;2022-11-14T09:33:28;44.05;;;21.05;;
33716;SDS011;20046;50.746;7.072;2022-11-14T09:35:57;39.67;;;21.20;;
33716;SDS011;20046;50.746;7.072;2022-11-14T09:38:24;40.78;;;21.83;;
33716;SDS011;20046;50.746;7.072;2022-11-14T09:40:57;42.55;;;20.33;;
33716;SDS011;20046;50.746;7.072;2022-11-14T09:43:46;49.95;;;20.27;;
33716;SDS011;20046;50.746;7.072;2022-11-14T09:46:39;44.63;;;20.42;;
33716;SDS011;20046;50.746;7.072;2022-11-14T09:49:16;51.67;;;22.17;;
33716;SDS011;20046;50.746;7.072;2022-11-14T09:51:51;45.17;;;20.70;;
33716;SDS011;20046;50.746;7.072;2022-11-14T09:54:23;41.20;;;19.90;;
33716;SDS011;20046;50.746;7.072;2022-11-14T09:56:51;44.63;;;21.80;;
33716;SDS011;20046;50.746;7.072;2022-11-14T09:59:17;47.90;;;20.80;;
33716;SDS011;20046;50.746;7.072;2022-11-14T10:16:13;44.17;;;22.23;;
33716;SDS011;20046;50.746;7.072;2022-11-14T10:18:47;47.33;;;23.10;;
33716;SDS011;20046;50.746;7.072;2022-11-14T10:26:30;50.28;;;23.05;;
33716;SDS011;20046;50.746;7.072;2022-11-14T10:32:04;55.30;;;23.63;;
33716;SDS011;20046;50.746;7.072;2022-11-14T10:37:40;44.25;;;21.65;;
33716;SDS011;20046;50.746;7.072;2022-11-14T10:40:45;49.05;;;23.17;;
33716;SDS011;20046;50.746;7.072;2022-11-14T10:43:27;50.08;;;23.05;;
33716;SDS011;20046;50.746;7.072;2022-11-14T10:46:17;48.17;;;23.67;;
33716;SDS011;20046;50.746;7.072;2022-11-14T10:48:55;46.42;;;22.65;;
33716;SDS011;20046;50.746;7.072;2022-11-14T10:56:33;48.13;;;21.63;;
33716;SDS011;20046;50.746;7.072;2022-11-14T10:59:09;52.17;;;22.98;;
33716;SDS011;20046;50.746;7.072;2022-11-14T11:01:36;46.10;;;22.33;;
33716;SDS011;20046;50.746;7.072;2022-11-14T11:06:50;50.72;;;23.25;;
33716;SDS011;20046;50.746;7.072;2022-11-14T11:09:27;45.92;;;24.33;;
33716;SDS011;20046;50.746;7.072;2022-11-14T11:12:16;47.95;;;23.05;;
33716;SDS011;20046;50.746;7.072;2022-11-14T11:14:44;49.70;;;23.77;;
33716;SDS011;20046;50.746;7.072;2022-11-14T11:19:40;61.53;;;29.55;;
33716;SDS011;20046;50.746;7.072;2022-11-14T11:22:23;50.95;;;24.50;;
33716;SDS011;20046;50.746;7.072;2022-11-14T11:24:53;52.15;;;24.63;;
33716;SDS011;20046;50.746;7.072;2022-11-14T11:32:39;51.80;;;24.92;;
33716;SDS011;20046;50.746;7.072;2022-11-14T11:35:05;58.22;;;24.90;;
33716;SDS011;20046;50.746;7.072;2022-11-14T11:37:36;54.70;;;24.67;;
33716;SDS011;20046;50.746;7.072;2022-11-14T11:40:26;55.97;;;25.88;;
33716;SDS011;20046;50.746;7.072;2022-11-14T11:42:56;54.72;;;25.17;;
33716;SDS011;20046;50.746;7.072;2022-11-14T11:45:25;59.75;;;26.10;;
33716;SDS011;20046;50.746;7.072;2022-11-14T11:48:15;54.85;;;25.92;;
33716;SDS011;20046;50.746;7.072;2022-11-14T11:50:45;53.53;;;26.35;;
33716;SDS011;20046;50.746;7.072;2022-11-14T11:55:48;56.20;;;25.98;;
33716;SDS011;20046;50.746;7.072;2022-11-14T12:00:56;48.97;;;24.77;;
33716;SDS011;20046;50.746;7.072;2022-11-14T12:03:23;49.53;;;23.38;;
33716;SDS011;20046;50.746;7.072;2022-11-14T12:11:09;49.35;;;24.45;;
33716;SDS011;20046;50.746;7.072;2022-11-14T12:30:35;44.05;;;21.45;;
33716;SDS011;20046;50.746;7.072;2022-11-14T12:35:50;47.78;;;23.45;;
33716;SDS011;20046;50.746;7.072;2022-11-14T12:38:19;45.65;;;22.00;;
33716;SDS011;20046;50.746;7.072;2022-11-14T12:40:50;47.35;;;24.38;;
33716;SDS011;20046;50.746;7.072;2022-11-14T12:43:40;45.67;;;23.13;;
33716;SDS011;20046;50.746;7.072;2022-11-14T12:46:08;40.55;;;21.38;;
33716;SDS011;20046;50.746;7.072;2022-11-14T12:48:40;48.42;;;23.30;;
33716;SDS011;20046;50.746;7.072;2022-11-14T12:53:51;46.83;;;23.15;;
33716;SDS011;20046;50.746;7.072;2022-11-14T13:04:50;46.92;;;23.75;;
33716;SDS011;20046;50.746;7.072;2022-11-14T13:10:30;43.92;;;21.95;;
33716;SDS011;20046;50.746;7.072;2022-11-14T13:15:57;43.85;;;22.10;;
33716;SDS011;20046;50.746;7.072;2022-11-14T13:30:00;43.88;;;22.45;;
33716;SDS011;20046;50.746;7.072;2022-11-14T13:38:22;42.42;;;21.92;;
33716;SDS011;20046;50.746;7.072;2022-11-14T13:49:12;48.80;;;23.27;;
33716;SDS011;20046;50.746;7.072;2022-11-14T13:51:53;41.17;;;21.58;;
33716;SDS011;20046;50.746;7.072;2022-11-14T13:54:19;41.70;;;20.83;;
33716;SDS011;20046;50.746;7.072;2022-11-14T13:59:51;39.70;;;20.70;;
33716;SDS011;20046;50.746;7.072;2022-11-14T14:08:02;39.85;;;21.50;;
33716;SDS011;20046;50.746;7.072;2022-11-14T14:13:18;40.85;;;20.38;;
33716;SDS011;20046;50.746;7.072;2022-11-14T14:18:43;38.45;;;19.80;;
33716;SDS011;20046;50.746;7.072;2022-11-14T14:29:32;35.97;;;20.35;;
33716;SDS011;20046;50.746;7.072;2022-11-14T14:32:05;36.28;;;19.38;;
33716;SDS011;20046;50.746;7.072;2022-11-14T14:34:38;33.22;;;19.40;;
33716;SDS011;20046;50.746;7.072;2022-11-14T14:37:13;36.88;;;19.60;;
33716;SDS011;20046;50.746;7.072;2022-11-14T14:39:48;38.03;;;19.50;;
33716;SDS011;20046;50.746;7.072;2022-11-14T14:42:24;32.25;;;17.42;;
33716;SDS011;20046;50.746;7.072;2022-11-14T14:44:51;34.25;;;19.65;;
33716;SDS011;20046;50.746;7.072;2022-11-14T14:47:29;37.40;;;17.63;;
33716;SDS011;20046;50.746;7.072;2022-11-14T14:50:27;38.00;;;20.10;;
33716;SDS011;20046;50.746;7.072;2022-11-14T14:53:02;40.88;;;18.83;;
33716;SDS011;20046;50.746;7.072;2022-11-14T14:55:29;33.35;;;19.08;;
33716;SDS011;20046;50.746;7.072;2022-11-14T14:58:42;33.45;;;19.25;;
33716;SDS011;20046;50.746;7.072;2022-11-14T15:00:53;30.02;;;16.85;;
33716;SDS011;20046;50.746;7.072;2022-11-14T15:03:25;36.33;;;18.70;;
33716;SDS011;20046;50.746;7.072;2022-11-14T15:06:21;35.83;;;19.52;;
33716;SDS011;20046;50.746;7.072;2022-11-14T15:09:02;34.17;;;18.50;;
33716;SDS011;20046;50.746;7.072;2022-11-14T15:11:52;34.03;;;17.20;;
33716;SDS011;20046;50.746;7.072;2022-11-14T15:14:23;30.25;;;17.80;;
33716;SDS011;20046;50.746;7.072;2022-11-14T15:16:51;32.08;;;18.75;;
33716;SDS011;20046;50.746;7.072;2022-11-14T15:19:19;32.35;;;18.30;;
33716;SDS011;20046;50.746;7.072;2022-11-14T15:22:00;29.80;;;18.77;;
33716;SDS011;20046;50.746;7.072;2022-11-14T15:24:28;34.53;;;18.38;;
33716;SDS011;20046;50.746;7.072;2022-11-14T15:26:54;33.42;;;19.13;;
33716;SDS011;20046;50.746;7.072;2022-11-14T15:29:20;31.75;;;18.50;;
33716;SDS011;20046;50.746;7.072;2022-11-14T15:31:54;31.02;;;17.95;;
33716;SDS011;20046;50.746;7.072;2022-11-14T15:34:23;27.55;;;17.42;;
33716;SDS011;20046;50.746;7.072;2022-11-14T15:39:50;30.75;;;18.77;;
33716;SDS011;20046;50.746;7.072;2022-11-14T15:44:53;34.40;;;18.80;;
33716;SDS011;20046;50.746;7.072;2022-11-14T15:49:51;32.63;;;17.90;;
33716;SDS011;20046;50.746;7.072;2022-11-14T15:52:39;30.40;;;19.08;;
33716;SDS011;20046;50.746;7.072;2022-11-14T15:55:24;31.70;;;19.17;;
33716;SDS011;20046;50.746;7.072;2022-11-14T15:57:50;30.38;;;19.55;;
33716;SDS011;20046;50.746;7.072;2022-11-14T16:00:16;30.27;;;17.85;;
33716;SDS011;20046;50.746;7.072;2022-11-14T16:05:24;32.63;;;18.27;;
33716;SDS011;20046;50.746;7.072;2022-11-14T16:07:52;32.25;;;19.58;;
33716;SDS011;20046;50.746;7.072;2022-11-14T16:10:19;35.17;;;19.30;;
33716;SDS011;20046;50.746;7.072;2022-11-14T16:12:47;36.20;;;20.48;;
33716;SDS011;20046;50.746;7.072;2022-11-14T16:15:13;36.63;;;21.35;;
33716;SDS011;20046;50.746;7.072;2022-11-14T16:17:42;41.60;;;19.30;;
33716;SDS011;20046;50.746;7.072;2022-11-14T16:20:12;34.17;;;20.45;;
33716;SDS011;20046;50.746;7.072;2022-11-14T16:22:40;35.08;;;20.65;;
33716;SDS011;20046;50.746;7.072;2022-11-14T16:27:42;35.58;;;19.20;;
33716;SDS011;20046;50.746;7.072;2022-11-14T16:30:12;33.78;;;19.92;;
33716;SDS011;20046;50.746;7.072;2022-11-14T16:32:40;34.35;;;20.85;;
33716;SDS011;20046;50.746;7.072;2022-11-14T16:35:14;35.60;;;19.60;;
33716;SDS011;20046;50.746;7.072;2022-11-14T16:37:40;32.75;;;19.13;;
33716;SDS011;20046;50.746;7.072;2022-11-14T16:40:06;37.42;;;20.50;;
33716;SDS011;20046;50.746;7.072;2022-11-14T16:42:37;33.95;;;20.10;;
33716;SDS011;20046;50.746;7.072;2022-11-14T16:45:03;35.42;;;19.30;;
33716;SDS011;20046;50.746;7.072;2022-11-14T16:47:29;31.48;;;18.83;;
33716;SDS011;20046;50.746;7.072;2022-11-14T16:49:56;37.58;;;19.42;;
33716;SDS011;20046;50.746;7.072;2022-11-14T16:52:22;37.58;;;21.05;;
33716;SDS011;20046;50.746;7.072;2022-11-14T16:54:47;34.47;;;19.70;;
33716;SDS011;20046;50.746;7.072;2022-11-14T16:57:13;37.20;;;20.95;;
33716;SDS011;20046;50.746;7.072;2022-11-14T16:59:39;41.38;;;21.67;;
33716;SDS011;20046;50.746;7.072;2022-11-14T17:02:04;33.55;;;20.23;;
33716;SDS011;20046;50.746;7.072;2022-11-14T17:04:30;34.15;;;20.48;;
33716;SDS011;20046;50.746;7.072;2022-11-14T17:06:55;31.90;;;19.15;;
33716;SDS011;20046;50.746;7.072;2022-11-14T17:09:21;30.02;;;18.58;;
33716;SDS011;20046;50.746;7.072;2022-11-14T17:11:47;33.75;;;20.23;;